sensor_id;sensor_type;location;lat;lon;timestamp;P1;durP1;ratioP1;P2;durP2;ratioP2
45368;SDS011;51342;55.250;37.668;2022-08-21T00:03:38;8.88;;;4.93;;
45368;SDS011;51342;55.250;37.668;2022-08-21T00:06:10;11.00;;;5.32;;
45368;SDS011;51342;55.250;37.668;2022-08-21T00:08:41;10.15;;;6.05;;
45368;SDS011;51342;55.250;37.668;2022-08-21T00:11:13;9.88;;;5.65;;
45368;SDS011;51342;55.250;37.668;2022-08-21T00:13:45;6.88;;;5.55;;
45368;SDS011;51342;55.250;37.668;2022-08-21T00:16:16;10.98;;;6.18;;
45368;SDS011;51342;55.250;37.668;2022-08-21T00:18:48;10.60;;;6.90;;
45368;SDS011;51342;55.250;37.668;2022-08-21T00:21:20;11.40;;;6.90;;
45368;SDS011;51342;55.250;37.668;2022-08-21T00:23:53;9.80;;;7.05;;
45368;SDS011;51342;55.250;37.668;2022-08-21T00:26:27;15.30;;;8.38;;
45368;SDS011;51342;55.250;37.668;2022-08-21T00:28:59;16.35;;;8.90;;
45368;SDS011;51342;55.250;37.668;2022-08-21T00:31:30;12.80;;;9.23;;
45368;SDS011;51342;55.250;37.668;2022-08-21T00:34:02;17.40;;;9.00;;
45368;SDS011;51342;55.250;37.668;2022-08-21T00:36:34;17.15;;;9.75;;
45368;SDS011;51342;55.250;37.668;2022-08-21T00:39:07;16.75;;;10.20;;
45368;SDS011;51342;55.250;37.668;2022-08-21T00:41:39;17.23;;;10.52;;
45368;SDS011;51342;55.250;37.668;2022-08-21T00:44:13;15.35;;;9.75;;
45368;SDS011;51342;55.250;37.668;2022-08-21T00:46:45;20.13;;;11.27;;
45368;SDS011;51342;55.250;37.668;2022-08-21T00:49:17;21.77;;;11.48;;
45368;SDS011;51342;55.250;37.668;2022-08-21T00:51:49;22.77;;;12.10;;
45368;SDS011;51342;55.250;37.668;2022-08-21T00:54:26;23.35;;;12.45;;
45368;SDS011;51342;55.250;37.668;2022-08-21T00:57:02;14.50;;;10.77;;
45368;SDS011;51342;55.250;37.668;2022-08-21T01:02:11;16.52;;;11.80;;
45368;SDS011;51342;55.250;37.668;2022-08-21T01:04:43;18.33;;;11.45;;
45368;SDS011;51342;55.250;37.668;2022-08-21T01:07:15;16.98;;;11.55;;
45368;SDS011;51342;55.250;37.668;2022-08-21T01:09:47;13.98;;;10.93;;
45368;SDS011;51342;55.250;37.668;2022-08-21T01:12:19;16.45;;;10.95;;
45368;SDS011;51342;55.250;37.668;2022-08-21T01:14:50;18.00;;;11.68;;
45368;SDS011;51342;55.250;37.668;2022-08-21T01:17:22;22.08;;;13.35;;
45368;SDS011;51342;55.250;37.668;2022-08-21T01:19:57;15.18;;;11.98;;
45368;SDS011;51342;55.250;37.668;2022-08-21T01:22:29;20.77;;;13.15;;
45368;SDS011;51342;55.250;37.668;2022-08-21T01:25:02;20.20;;;13.70;;
45368;SDS011;51342;55.250;37.668;2022-08-21T01:27:36;23.80;;;12.40;;
45368;SDS011;51342;55.250;37.668;2022-08-21T01:30:16;18.52;;;13.48;;
45368;SDS011;51342;55.250;37.668;2022-08-21T01:32:50;19.10;;;13.00;;
45368;SDS011;51342;55.250;37.668;2022-08-21T01:35:23;20.50;;;14.35;;
45368;SDS011;51342;55.250;37.668;2022-08-21T01:37:55;20.65;;;14.57;;
45368;SDS011;51342;55.250;37.668;2022-08-21T01:40:26;18.55;;;12.95;;
45368;SDS011;51342;55.250;37.668;2022-08-21T01:42:58;17.17;;;14.45;;
45368;SDS011;51342;55.250;37.668;2022-08-21T01:45:29;22.83;;;16.70;;
45368;SDS011;51342;55.250;37.668;2022-08-21T01:48:01;21.52;;;14.85;;
45368;SDS011;51342;55.250;37.668;2022-08-21T01:50:33;22.20;;;15.27;;
45368;SDS011;51342;55.250;37.668;2022-08-21T01:53:05;32.10;;;16.50;;
45368;SDS011;51342;55.250;37.668;2022-08-21T01:55:36;22.30;;;15.68;;
45368;SDS011;51342;55.250;37.668;2022-08-21T01:58:08;23.77;;;16.25;;
45368;SDS011;51342;55.250;37.668;2022-08-21T02:00:40;20.48;;;15.23;;
45368;SDS011;51342;55.250;37.668;2022-08-21T02:03:12;24.98;;;16.90;;
45368;SDS011;51342;55.250;37.668;2022-08-21T02:05:43;23.77;;;16.50;;
45368;SDS011;51342;55.250;37.668;2022-08-21T02:08:15;24.17;;;17.83;;
45368;SDS011;51342;55.250;37.668;2022-08-21T02:10:46;27.10;;;17.58;;
45368;SDS011;51342;55.250;37.668;2022-08-21T02:13:17;25.70;;;17.65;;
45368;SDS011;51342;55.250;37.668;2022-08-21T02:15:49;22.88;;;17.30;;
45368;SDS011;51342;55.250;37.668;2022-08-21T02:18:20;27.20;;;18.27;;
45368;SDS011;51342;55.250;37.668;2022-08-21T02:20:52;23.42;;;17.40;;
45368;SDS011;51342;55.250;37.668;2022-08-21T02:23:24;25.17;;;17.63;;
45368;SDS011;51342;55.250;37.668;2022-08-21T02:25:56;25.30;;;17.13;;
45368;SDS011;51342;55.250;37.668;2022-08-21T02:28:29;25.75;;;18.30;;
45368;SDS011;51342;55.250;37.668;2022-08-21T02:31:02;26.65;;;17.80;;
45368;SDS011;51342;55.250;37.668;2022-08-21T02:33:34;24.35;;;18.17;;
45368;SDS011;51342;55.250;37.668;2022-08-21T02:36:06;27.35;;;20.23;;
45368;SDS011;51342;55.250;37.668;2022-08-21T02:38:40;29.65;;;20.05;;
45368;SDS011;51342;55.250;37.668;2022-08-21T02:41:13;26.70;;;19.67;;
45368;SDS011;51342;55.250;37.668;2022-08-21T02:43:47;29.88;;;21.42;;
45368;SDS011;51342;55.250;37.668;2022-08-21T02:46:19;29.67;;;20.30;;
45368;SDS011;51342;55.250;37.668;2022-08-21T02:48:52;27.00;;;21.33;;
45368;SDS011;51342;55.250;37.668;2022-08-21T02:51:23;31.02;;;21.40;;
45368;SDS011;51342;55.250;37.668;2022-08-21T02:53:55;28.80;;;21.70;;
45368;SDS011;51342;55.250;37.668;2022-08-21T02:56:27;31.50;;;22.05;;
45368;SDS011;51342;55.250;37.668;2022-08-21T02:58:58;27.50;;;19.92;;
45368;SDS011;51342;55.250;37.668;2022-08-21T03:01:30;30.80;;;21.10;;
45368;SDS011;51342;55.250;37.668;2022-08-21T03:04:01;29.27;;;21.05;;
45368;SDS011;51342;55.250;37.668;2022-08-21T03:06:32;29.02;;;20.65;;
45368;SDS011;51342;55.250;37.668;2022-08-21T03:09:04;26.75;;;19.27;;
45368;SDS011;51342;55.250;37.668;2022-08-21T03:11:36;27.63;;;19.17;;
45368;SDS011;51342;55.250;37.668;2022-08-21T03:14:07;26.05;;;18.15;;
45368;SDS011;51342;55.250;37.668;2022-08-21T03:16:39;27.88;;;18.80;;
45368;SDS011;51342;55.250;37.668;2022-08-21T03:19:10;25.15;;;17.98;;
45368;SDS011;51342;55.250;37.668;2022-08-21T03:21:41;26.33;;;18.45;;
45368;SDS011;51342;55.250;37.668;2022-08-21T03:24:13;26.17;;;17.25;;
45368;SDS011;51342;55.250;37.668;2022-08-21T03:26:44;23.08;;;16.80;;
45368;SDS011;51342;55.250;37.668;2022-08-21T03:29:15;25.20;;;16.85;;
45368;SDS011;51342;55.250;37.668;2022-08-21T03:31:47;23.77;;;17.65;;
45368;SDS011;51342;55.250;37.668;2022-08-21T03:34:19;23.05;;;17.00;;
45368;SDS011;51342;55.250;37.668;2022-08-21T03:36:51;21.83;;;15.13;;
45368;SDS011;51342;55.250;37.668;2022-08-21T03:39:22;21.52;;;15.00;;
45368;SDS011;51342;55.250;37.668;2022-08-21T03:41:54;21.15;;;14.95;;
45368;SDS011;51342;55.250;37.668;2022-08-21T03:44:25;20.33;;;13.65;;
45368;SDS011;51342;55.250;37.668;2022-08-21T03:47:00;20.38;;;13.90;;
45368;SDS011;51342;55.250;37.668;2022-08-21T03:49:32;20.25;;;14.07;;
45368;SDS011;51342;55.250;37.668;2022-08-21T03:52:04;17.90;;;12.13;;
45368;SDS011;51342;55.250;37.668;2022-08-21T03:54:38;20.27;;;13.15;;
45368;SDS011;51342;55.250;37.668;2022-08-21T03:57:12;17.58;;;12.05;;
45368;SDS011;51342;55.250;37.668;2022-08-21T03:59:44;17.27;;;12.13;;
45368;SDS011;51342;55.250;37.668;2022-08-21T04:02:16;14.98;;;11.57;;
45368;SDS011;51342;55.250;37.668;2022-08-21T04:04:51;18.38;;;11.68;;
45368;SDS011;51342;55.250;37.668;2022-08-21T04:07:22;16.52;;;11.27;;
45368;SDS011;51342;55.250;37.668;2022-08-21T04:09:54;18.85;;;11.85;;
45368;SDS011;51342;55.250;37.668;2022-08-21T04:12:25;19.48;;;12.05;;
45368;SDS011;51342;55.250;37.668;2022-08-21T04:14:57;15.93;;;12.18;;
45368;SDS011;51342;55.250;37.668;2022-08-21T04:17:28;18.15;;;12.13;;
45368;SDS011;51342;55.250;37.668;2022-08-21T04:20:00;17.98;;;12.45;;
45368;SDS011;51342;55.250;37.668;2022-08-21T04:22:31;19.38;;;12.45;;
45368;SDS011;51342;55.250;37.668;2022-08-21T04:25:03;19.65;;;12.70;;
45368;SDS011;51342;55.250;37.668;2022-08-21T04:27:34;17.75;;;11.57;;
45368;SDS011;51342;55.250;37.668;2022-08-21T04:30:07;18.98;;;12.63;;
45368;SDS011;51342;55.250;37.668;2022-08-21T04:32:42;15.40;;;11.68;;
45368;SDS011;51342;55.250;37.668;2022-08-21T04:35:18;18.00;;;12.23;;
45368;SDS011;51342;55.250;37.668;2022-08-21T04:37:52;14.68;;;11.93;;
45368;SDS011;51342;55.250;37.668;2022-08-21T04:40:26;14.38;;;10.68;;
45368;SDS011;51342;55.250;37.668;2022-08-21T04:43:03;15.25;;;10.43;;
45368;SDS011;51342;55.250;37.668;2022-08-21T04:45:38;16.00;;;9.95;;
45368;SDS011;51342;55.250;37.668;2022-08-21T04:48:12;14.70;;;10.75;;
45368;SDS011;51342;55.250;37.668;2022-08-21T04:50:49;13.25;;;9.35;;
45368;SDS011;51342;55.250;37.668;2022-08-21T04:55:56;10.30;;;8.13;;
45368;SDS011;51342;55.250;37.668;2022-08-21T04:58:31;12.20;;;7.50;;
45368;SDS011;51342;55.250;37.668;2022-08-21T05:01:04;9.20;;;6.35;;
45368;SDS011;51342;55.250;37.668;2022-08-21T05:03:39;10.35;;;6.00;;
45368;SDS011;51342;55.250;37.668;2022-08-21T05:06:12;11.75;;;6.47;;
45368;SDS011;51342;55.250;37.668;2022-08-21T05:08:46;9.82;;;5.65;;
45368;SDS011;51342;55.250;37.668;2022-08-21T05:11:19;8.55;;;6.35;;
45368;SDS011;51342;55.250;37.668;2022-08-21T05:13:52;7.88;;;5.05;;
45368;SDS011;51342;55.250;37.668;2022-08-21T05:16:24;8.57;;;5.50;;
45368;SDS011;51342;55.250;37.668;2022-08-21T05:18:55;8.43;;;4.57;;
45368;SDS011;51342;55.250;37.668;2022-08-21T05:21:26;8.50;;;4.57;;
45368;SDS011;51342;55.250;37.668;2022-08-21T05:23:58;8.52;;;4.45;;
45368;SDS011;51342;55.250;37.668;2022-08-21T05:26:29;7.72;;;4.75;;
45368;SDS011;51342;55.250;37.668;2022-08-21T05:29:01;9.73;;;5.15;;
45368;SDS011;51342;55.250;37.668;2022-08-21T05:31:35;8.30;;;4.78;;
45368;SDS011;51342;55.250;37.668;2022-08-21T05:34:06;11.45;;;4.70;;
45368;SDS011;51342;55.250;37.668;2022-08-21T05:36:38;5.75;;;4.38;;
45368;SDS011;51342;55.250;37.668;2022-08-21T05:39:10;8.00;;;4.40;;
45368;SDS011;51342;55.250;37.668;2022-08-21T05:41:41;10.05;;;4.75;;
45368;SDS011;51342;55.250;37.668;2022-08-21T05:44:13;7.28;;;4.28;;
45368;SDS011;51342;55.250;37.668;2022-08-21T05:46:44;7.80;;;4.70;;
45368;SDS011;51342;55.250;37.668;2022-08-21T05:49:16;10.43;;;4.60;;
45368;SDS011;51342;55.250;37.668;2022-08-21T05:51:47;7.05;;;4.40;;
45368;SDS011;51342;55.250;37.668;2022-08-21T05:54:18;9.63;;;4.18;;
45368;SDS011;51342;55.250;37.668;2022-08-21T05:56:50;5.95;;;3.60;;
45368;SDS011;51342;55.250;37.668;2022-08-21T05:59:22;4.10;;;3.20;;
45368;SDS011;51342;55.250;37.668;2022-08-21T06:01:54;7.32;;;3.25;;
45368;SDS011;51342;55.250;37.668;2022-08-21T06:04:25;6.18;;;2.90;;
45368;SDS011;51342;55.250;37.668;2022-08-21T06:06:57;8.30;;;3.00;;
45368;SDS011;51342;55.250;37.668;2022-08-21T06:09:28;8.32;;;3.10;;
45368;SDS011;51342;55.250;37.668;2022-08-21T06:12:06;5.00;;;2.60;;
45368;SDS011;51342;55.250;37.668;2022-08-21T06:14:40;3.83;;;2.47;;
45368;SDS011;51342;55.250;37.668;2022-08-21T06:17:12;4.75;;;2.28;;
45368;SDS011;51342;55.250;37.668;2022-08-21T06:19:50;4.15;;;2.00;;
45368;SDS011;51342;55.250;37.668;2022-08-21T06:22:23;7.85;;;2.55;;
45368;SDS011;51342;55.250;37.668;2022-08-21T06:24:54;5.00;;;2.00;;
45368;SDS011;51342;55.250;37.668;2022-08-21T06:27:26;3.90;;;2.05;;
45368;SDS011;51342;55.250;37.668;2022-08-21T06:29:57;5.22;;;2.10;;
45368;SDS011;51342;55.250;37.668;2022-08-21T06:32:28;6.30;;;1.90;;
45368;SDS011;51342;55.250;37.668;2022-08-21T06:35:00;6.50;;;2.25;;
45368;SDS011;51342;55.250;37.668;2022-08-21T06:37:31;5.18;;;1.85;;
45368;SDS011;51342;55.250;37.668;2022-08-21T06:40:04;3.85;;;1.77;;
45368;SDS011;51342;55.250;37.668;2022-08-21T06:42:37;4.00;;;1.80;;
45368;SDS011;51342;55.250;37.668;2022-08-21T06:45:09;3.72;;;1.65;;
45368;SDS011;51342;55.250;37.668;2022-08-21T06:47:41;4.95;;;1.73;;
45368;SDS011;51342;55.250;37.668;2022-08-21T06:50:12;8.13;;;2.08;;
45368;SDS011;51342;55.250;37.668;2022-08-21T06:52:43;4.20;;;1.75;;
45368;SDS011;51342;55.250;37.668;2022-08-21T06:55:15;4.50;;;2.03;;
45368;SDS011;51342;55.250;37.668;2022-08-21T06:57:46;4.45;;;1.60;;
45368;SDS011;51342;55.250;37.668;2022-08-21T07:00:18;5.43;;;1.60;;
45368;SDS011;51342;55.250;37.668;2022-08-21T07:02:49;4.72;;;1.90;;
45368;SDS011;51342;55.250;37.668;2022-08-21T07:05:21;4.75;;;1.77;;
45368;SDS011;51342;55.250;37.668;2022-08-21T07:07:55;3.40;;;1.92;;
45368;SDS011;51342;55.250;37.668;2022-08-21T07:10:28;4.15;;;1.95;;
45368;SDS011;51342;55.250;37.668;2022-08-21T07:12:59;4.15;;;1.80;;
45368;SDS011;51342;55.250;37.668;2022-08-21T07:15:30;3.95;;;1.80;;
45368;SDS011;51342;55.250;37.668;2022-08-21T07:18:02;4.35;;;1.67;;
45368;SDS011;51342;55.250;37.668;2022-08-21T07:20:34;2.38;;;1.50;;
45368;SDS011;51342;55.250;37.668;2022-08-21T07:23:07;4.97;;;1.77;;
45368;SDS011;51342;55.250;37.668;2022-08-21T07:25:46;4.45;;;2.00;;
45368;SDS011;51342;55.250;37.668;2022-08-21T07:28:18;3.92;;;1.67;;
45368;SDS011;51342;55.250;37.668;2022-08-21T07:30:53;3.58;;;1.55;;
45368;SDS011;51342;55.250;37.668;2022-08-21T07:33:29;4.93;;;1.98;;
45368;SDS011;51342;55.250;37.668;2022-08-21T07:36:02;4.10;;;1.50;;
45368;SDS011;51342;55.250;37.668;2022-08-21T07:38:34;4.63;;;1.98;;
45368;SDS011;51342;55.250;37.668;2022-08-21T07:41:16;4.20;;;1.90;;
45368;SDS011;51342;55.250;37.668;2022-08-21T07:43:56;2.95;;;1.60;;
45368;SDS011;51342;55.250;37.668;2022-08-21T07:46:28;4.18;;;1.75;;
45368;SDS011;51342;55.250;37.668;2022-08-21T07:49:00;5.50;;;1.90;;
45368;SDS011;51342;55.250;37.668;2022-08-21T07:51:31;6.00;;;1.85;;
45368;SDS011;51342;55.250;37.668;2022-08-21T07:54:04;5.53;;;1.48;;
45368;SDS011;51342;55.250;37.668;2022-08-21T07:56:36;4.53;;;1.98;;
45368;SDS011;51342;55.250;37.668;2022-08-21T07:59:07;6.78;;;1.60;;
45368;SDS011;51342;55.250;37.668;2022-08-21T08:01:38;5.45;;;1.90;;
45368;SDS011;51342;55.250;37.668;2022-08-21T08:04:10;2.75;;;1.60;;
45368;SDS011;51342;55.250;37.668;2022-08-21T08:06:41;4.50;;;2.00;;
45368;SDS011;51342;55.250;37.668;2022-08-21T08:09:16;4.10;;;1.67;;
45368;SDS011;51342;55.250;37.668;2022-08-21T08:11:48;5.75;;;2.03;;
45368;SDS011;51342;55.250;37.668;2022-08-21T08:14:19;5.55;;;1.92;;
45368;SDS011;51342;55.250;37.668;2022-08-21T08:16:50;2.95;;;1.90;;
45368;SDS011;51342;55.250;37.668;2022-08-21T08:19:22;4.88;;;1.65;;
45368;SDS011;51342;55.250;37.668;2022-08-21T08:21:53;7.60;;;2.03;;
45368;SDS011;51342;55.250;37.668;2022-08-21T08:24:25;4.07;;;1.58;;
45368;SDS011;51342;55.250;37.668;2022-08-21T08:26:57;3.58;;;1.92;;
45368;SDS011;51342;55.250;37.668;2022-08-21T08:29:28;4.38;;;1.45;;
45368;SDS011;51342;55.250;37.668;2022-08-21T08:32:02;4.43;;;1.48;;
45368;SDS011;51342;55.250;37.668;2022-08-21T08:34:34;7.22;;;2.10;;
45368;SDS011;51342;55.250;37.668;2022-08-21T08:37:07;6.65;;;2.17;;
45368;SDS011;51342;55.250;37.668;2022-08-21T08:39:40;4.03;;;1.73;;
45368;SDS011;51342;55.250;37.668;2022-08-21T08:42:21;3.85;;;1.33;;
45368;SDS011;51342;55.250;37.668;2022-08-21T08:45:08;2.88;;;1.38;;
45368;SDS011;51342;55.250;37.668;2022-08-21T08:47:43;4.82;;;1.52;;
45368;SDS011;51342;55.250;37.668;2022-08-21T08:50:19;3.00;;;1.50;;
45368;SDS011;51342;55.250;37.668;2022-08-21T08:53:00;4.65;;;1.50;;
45368;SDS011;51342;55.250;37.668;2022-08-21T08:55:36;3.85;;;1.25;;
45368;SDS011;51342;55.250;37.668;2022-08-21T08:58:53;3.67;;;1.40;;
45368;SDS011;51342;55.250;37.668;2022-08-21T09:01:16;4.03;;;1.63;;
45368;SDS011;51342;55.250;37.668;2022-08-21T09:03:49;7.95;;;1.60;;
45368;SDS011;51342;55.250;37.668;2022-08-21T09:06:28;10.02;;;1.80;;
45368;SDS011;51342;55.250;37.668;2022-08-21T09:28:24;5.07;;;1.30;;
45368;SDS011;51342;55.250;37.668;2022-08-21T09:30:55;3.28;;;1.50;;
45368;SDS011;51342;55.250;37.668;2022-08-21T09:33:28;5.25;;;1.90;;
45368;SDS011;51342;55.250;37.668;2022-08-21T09:36:00;4.28;;;1.80;;
45368;SDS011;51342;55.250;37.668;2022-08-21T09:38:33;6.47;;;1.95;;
45368;SDS011;51342;55.250;37.668;2022-08-21T09:41:09;7.82;;;2.13;;
45368;SDS011;51342;55.250;37.668;2022-08-21T09:43:51;4.60;;;2.13;;
45368;SDS011;51342;55.250;37.668;2022-08-21T09:46:24;7.15;;;2.03;;
45368;SDS011;51342;55.250;37.668;2022-08-21T09:48:58;6.03;;;2.00;;
45368;SDS011;51342;55.250;37.668;2022-08-21T09:51:33;7.03;;;2.63;;
45368;SDS011;51342;55.250;37.668;2022-08-21T09:56:39;14.15;;;10.25;;
45368;SDS011;51342;55.250;37.668;2022-08-21T10:00:10;5.57;;;2.03;;
45368;SDS011;51342;55.250;37.668;2022-08-21T10:02:53;6.15;;;2.20;;
45368;SDS011;51342;55.250;37.668;2022-08-21T10:05:25;4.25;;;2.10;;
45368;SDS011;51342;55.250;37.668;2022-08-21T10:07:57;6.65;;;1.92;;
45368;SDS011;51342;55.250;37.668;2022-08-21T10:10:31;4.63;;;1.77;;
45368;SDS011;51342;55.250;37.668;2022-08-21T10:14:09;6.15;;;2.08;;
45368;SDS011;51342;55.250;37.668;2022-08-21T10:30:50;15.25;;;7.20;;
45368;SDS011;51342;55.250;37.668;2022-08-21T10:33:37;12.85;;;8.38;;
45368;SDS011;51342;55.250;37.668;2022-08-21T10:36:18;5.47;;;2.55;;
45368;SDS011;51342;55.250;37.668;2022-08-21T10:46:59;11.90;;;4.68;;
45368;SDS011;51342;55.250;37.668;2022-08-21T10:49:56;8.20;;;3.22;;
45368;SDS011;51342;55.250;37.668;2022-08-21T10:58:40;15.90;;;7.85;;
45368;SDS011;51342;55.250;37.668;2022-08-21T11:01:18;25.75;;;12.82;;
45368;SDS011;51342;55.250;37.668;2022-08-21T11:03:51;12.55;;;4.63;;
45368;SDS011;51342;55.250;37.668;2022-08-21T11:06:27;8.85;;;4.25;;
45368;SDS011;51342;55.250;37.668;2022-08-21T11:09:11;8.50;;;2.60;;
45368;SDS011;51342;55.250;37.668;2022-08-21T11:12:09;8.65;;;2.08;;
45368;SDS011;51342;55.250;37.668;2022-08-21T11:17:45;7.75;;;3.65;;
45368;SDS011;51342;55.250;37.668;2022-08-21T11:20:33;15.05;;;5.15;;
45368;SDS011;51342;55.250;37.668;2022-08-21T11:25:55;17.90;;;4.93;;
45368;SDS011;51342;55.250;37.668;2022-08-21T11:28:34;12.52;;;3.90;;
45368;SDS011;51342;55.250;37.668;2022-08-21T11:31:35;13.52;;;3.03;;
45368;SDS011;51342;55.250;37.668;2022-08-21T11:39:43;13.35;;;3.33;;
45368;SDS011;51342;55.250;37.668;2022-08-21T11:42:37;10.02;;;2.28;;
45368;SDS011;51342;55.250;37.668;2022-08-21T11:45:22;9.43;;;2.60;;
45368;SDS011;51342;55.250;37.668;2022-08-21T11:50:36;12.10;;;3.70;;
45368;SDS011;51342;55.250;37.668;2022-08-21T11:55:55;16.50;;;5.43;;
45368;SDS011;51342;55.250;37.668;2022-08-21T11:58:41;13.25;;;4.82;;
45368;SDS011;51342;55.250;37.668;2022-08-21T12:01:37;14.60;;;5.22;;
45368;SDS011;51342;55.250;37.668;2022-08-21T12:04:23;13.40;;;4.30;;
45368;SDS011;51342;55.250;37.668;2022-08-21T12:07:16;11.82;;;2.92;;
45368;SDS011;51342;55.250;37.668;2022-08-21T12:10:00;10.98;;;3.00;;
45368;SDS011;51342;55.250;37.668;2022-08-21T12:12:35;11.30;;;3.78;;
45368;SDS011;51342;55.250;37.668;2022-08-21T12:17:53;10.27;;;3.10;;
45368;SDS011;51342;55.250;37.668;2022-08-21T12:20:37;11.10;;;2.45;;
45368;SDS011;51342;55.250;37.668;2022-08-21T12:25:48;10.52;;;2.88;;
45368;SDS011;51342;55.250;37.668;2022-08-21T12:28:49;8.40;;;2.20;;
45368;SDS011;51342;55.250;37.668;2022-08-21T12:31:23;9.32;;;2.15;;
45368;SDS011;51342;55.250;37.668;2022-08-21T12:33:58;9.23;;;2.47;;
45368;SDS011;51342;55.250;37.668;2022-08-21T12:36:44;12.73;;;2.60;;
45368;SDS011;51342;55.250;37.668;2022-08-21T12:39:25;8.63;;;2.70;;
45368;SDS011;51342;55.250;37.668;2022-08-21T12:44:58;8.50;;;2.20;;
45368;SDS011;51342;55.250;37.668;2022-08-21T12:47:35;12.77;;;2.40;;
45368;SDS011;51342;55.250;37.668;2022-08-21T12:53:32;8.40;;;2.10;;
45368;SDS011;51342;55.250;37.668;2022-08-21T12:56:13;7.35;;;2.25;;
45368;SDS011;51342;55.250;37.668;2022-08-21T12:58:49;13.75;;;2.70;;
45368;SDS011;51342;55.250;37.668;2022-08-21T13:01:26;10.05;;;2.10;;
45368;SDS011;51342;55.250;37.668;2022-08-21T13:04:00;12.57;;;2.60;;
45368;SDS011;51342;55.250;37.668;2022-08-21T13:06:44;9.35;;;1.98;;
45368;SDS011;51342;55.250;37.668;2022-08-21T13:09:26;8.57;;;2.03;;
45368;SDS011;51342;55.250;37.668;2022-08-21T13:12:00;7.75;;;2.63;;
45368;SDS011;51342;55.250;37.668;2022-08-21T13:14:33;9.35;;;2.00;;
45368;SDS011;51342;55.250;37.668;2022-08-21T13:19:40;14.05;;;2.75;;
45368;SDS011;51342;55.250;37.668;2022-08-21T13:22:13;7.85;;;2.28;;
45368;SDS011;51342;55.250;37.668;2022-08-21T13:24:46;9.57;;;2.13;;
45368;SDS011;51342;55.250;37.668;2022-08-21T13:27:23;11.55;;;3.17;;
45368;SDS011;51342;55.250;37.668;2022-08-21T13:30:04;16.17;;;3.50;;
45368;SDS011;51342;55.250;37.668;2022-08-21T13:32:41;13.32;;;2.25;;
45368;SDS011;51342;55.250;37.668;2022-08-21T13:35:16;11.67;;;3.20;;
45368;SDS011;51342;55.250;37.668;2022-08-21T13:37:50;11.57;;;2.38;;
45368;SDS011;51342;55.250;37.668;2022-08-21T13:40:28;13.05;;;2.95;;
45368;SDS011;51342;55.250;37.668;2022-08-21T13:43:02;8.70;;;1.73;;
45368;SDS011;51342;55.250;37.668;2022-08-21T13:45:34;11.80;;;2.22;;
45368;SDS011;51342;55.250;37.668;2022-08-21T13:48:05;9.70;;;2.20;;
45368;SDS011;51342;55.250;37.668;2022-08-21T13:50:37;7.50;;;1.83;;
45368;SDS011;51342;55.250;37.668;2022-08-21T13:53:27;11.00;;;2.03;;
45368;SDS011;51342;55.250;37.668;2022-08-21T13:56:02;9.48;;;1.98;;
45368;SDS011;51342;55.250;37.668;2022-08-21T13:58:42;11.63;;;2.50;;
45368;SDS011;51342;55.250;37.668;2022-08-21T14:01:29;8.35;;;1.83;;
45368;SDS011;51342;55.250;37.668;2022-08-21T14:04:16;10.13;;;1.90;;
45368;SDS011;51342;55.250;37.668;2022-08-21T14:06:52;7.20;;;2.10;;
45368;SDS011;51342;55.250;37.668;2022-08-21T14:12:04;13.88;;;2.20;;
45368;SDS011;51342;55.250;37.668;2022-08-21T14:15:06;9.80;;;1.70;;
45368;SDS011;51342;55.250;37.668;2022-08-21T14:17:38;10.50;;;1.70;;
45368;SDS011;51342;55.250;37.668;2022-08-21T14:20:13;9.32;;;2.30;;
45368;SDS011;51342;55.250;37.668;2022-08-21T14:22:58;8.40;;;1.67;;
45368;SDS011;51342;55.250;37.668;2022-08-21T14:25:37;13.50;;;2.15;;
45368;SDS011;51342;55.250;37.668;2022-08-21T14:30:42;8.68;;;1.80;;
45368;SDS011;51342;55.250;37.668;2022-08-21T14:33:48;6.28;;;1.63;;
45368;SDS011;51342;55.250;37.668;2022-08-21T14:36:12;11.75;;;2.08;;
45368;SDS011;51342;55.250;37.668;2022-08-21T14:38:44;5.43;;;1.92;;
45368;SDS011;51342;55.250;37.668;2022-08-21T14:41:19;7.15;;;2.03;;
45368;SDS011;51342;55.250;37.668;2022-08-21T14:43:53;3.92;;;1.60;;
45368;SDS011;51342;55.250;37.668;2022-08-21T14:46:27;9.50;;;2.00;;
45368;SDS011;51342;55.250;37.668;2022-08-21T14:49:00;7.60;;;1.80;;
45368;SDS011;51342;55.250;37.668;2022-08-21T14:51:32;6.00;;;2.15;;
45368;SDS011;51342;55.250;37.668;2022-08-21T14:54:04;8.18;;;1.77;;
45368;SDS011;51342;55.250;37.668;2022-08-21T14:56:39;8.88;;;1.65;;
45368;SDS011;51342;55.250;37.668;2022-08-21T14:59:11;11.15;;;2.92;;
45368;SDS011;51342;55.250;37.668;2022-08-21T15:01:42;6.90;;;1.80;;
45368;SDS011;51342;55.250;37.668;2022-08-21T15:04:14;7.75;;;1.75;;
45368;SDS011;51342;55.250;37.668;2022-08-21T15:06:46;6.80;;;1.98;;
45368;SDS011;51342;55.250;37.668;2022-08-21T15:09:17;6.53;;;1.63;;
45368;SDS011;51342;55.250;37.668;2022-08-21T15:11:49;6.32;;;1.80;;
45368;SDS011;51342;55.250;37.668;2022-08-21T15:14:23;7.80;;;1.75;;
45368;SDS011;51342;55.250;37.668;2022-08-21T15:16:57;7.50;;;1.85;;
45368;SDS011;51342;55.250;37.668;2022-08-21T15:19:29;9.48;;;1.90;;
45368;SDS011;51342;55.250;37.668;2022-08-21T15:22:00;5.25;;;1.70;;
45368;SDS011;51342;55.250;37.668;2022-08-21T15:24:32;4.30;;;1.40;;
45368;SDS011;51342;55.250;37.668;2022-08-21T15:27:04;4.63;;;1.67;;
45368;SDS011;51342;55.250;37.668;2022-08-21T15:29:38;4.97;;;1.63;;
45368;SDS011;51342;55.250;37.668;2022-08-21T15:32:27;5.35;;;1.67;;
45368;SDS011;51342;55.250;37.668;2022-08-21T15:35:01;7.95;;;2.00;;
45368;SDS011;51342;55.250;37.668;2022-08-21T15:37:33;7.28;;;1.85;;
45368;SDS011;51342;55.250;37.668;2022-08-21T15:40:05;6.43;;;1.80;;
45368;SDS011;51342;55.250;37.668;2022-08-21T15:42:39;7.15;;;1.70;;
45368;SDS011;51342;55.250;37.668;2022-08-21T15:45:11;6.10;;;1.77;;
45368;SDS011;51342;55.250;37.668;2022-08-21T15:47:44;6.57;;;2.60;;
45368;SDS011;51342;55.250;37.668;2022-08-21T15:50:16;5.28;;;1.90;;
45368;SDS011;51342;55.250;37.668;2022-08-21T15:52:48;10.80;;;2.30;;
45368;SDS011;51342;55.250;37.668;2022-08-21T15:55:20;9.55;;;2.33;;
45368;SDS011;51342;55.250;37.668;2022-08-21T15:57:51;6.30;;;2.45;;
45368;SDS011;51342;55.250;37.668;2022-08-21T16:00:24;6.60;;;1.83;;
45368;SDS011;51342;55.250;37.668;2022-08-21T16:02:57;7.25;;;2.63;;
45368;SDS011;51342;55.250;37.668;2022-08-21T16:05:30;7.57;;;2.08;;
45368;SDS011;51342;55.250;37.668;2022-08-21T16:08:02;7.03;;;2.22;;
45368;SDS011;51342;55.250;37.668;2022-08-21T16:10:34;6.60;;;2.53;;
45368;SDS011;51342;55.250;37.668;2022-08-21T16:13:07;7.72;;;2.60;;
45368;SDS011;51342;55.250;37.668;2022-08-21T16:16:02;8.43;;;2.20;;
45368;SDS011;51342;55.250;37.668;2022-08-21T16:18:34;8.07;;;2.00;;
45368;SDS011;51342;55.250;37.668;2022-08-21T16:21:06;6.68;;;2.72;;
45368;SDS011;51342;55.250;37.668;2022-08-21T16:23:38;11.70;;;2.42;;
45368;SDS011;51342;55.250;37.668;2022-08-21T16:26:11;7.68;;;2.35;;
45368;SDS011;51342;55.250;37.668;2022-08-21T16:28:44;9.50;;;2.03;;
45368;SDS011;51342;55.250;37.668;2022-08-21T16:31:16;8.25;;;1.98;;
45368;SDS011;51342;55.250;37.668;2022-08-21T16:33:49;7.70;;;2.33;;
45368;SDS011;51342;55.250;37.668;2022-08-21T16:36:22;4.80;;;2.05;;
45368;SDS011;51342;55.250;37.668;2022-08-21T16:38:56;7.28;;;2.70;;
45368;SDS011;51342;55.250;37.668;2022-08-21T16:41:30;8.50;;;3.20;;
45368;SDS011;51342;55.250;37.668;2022-08-21T16:44:04;6.85;;;2.17;;